createdAt,value
2019-04-22T00:00:10.855Z,37.81
2019-04-22T00:02:49.001Z,38.02
2019-04-22T00:05:27.950Z,38.29
2019-04-22T00:08:08.804Z,38.27
2019-04-22T00:10:48.035Z,38.48
2019-04-22T00:13:17.143Z,38.82
2019-04-22T00:15:41.856Z,39.17
2019-04-22T00:18:22.373Z,38.94
2019-04-22T00:20:50.467Z,39.03
2019-04-22T00:23:27.774Z,37.75
2019-04-22T00:25:58.150Z,38.26
2019-04-22T00:28:35.010Z,38.88
2019-04-22T00:31:06.728Z,38.81
2019-04-22T00:33:31.263Z,38.39
2019-04-22T00:36:04.316Z,38.82
2019-04-22T00:38:37.922Z,38.72
2019-04-22T00:41:05.513Z,39.10
2019-04-22T00:43:39.542Z,39.31
2019-04-22T00:46:10.965Z,39.08
2019-04-22T00:48:42.086Z,38.36
2019-04-22T00:51:12.346Z,38.53
2019-04-22T00:53:44.661Z,39.54
2019-04-22T00:58:46.444Z,39.83
2019-04-22T01:01:33.758Z,39.98
2019-04-22T01:03:55.502Z,40.25
2019-04-22T01:06:20.345Z,38.97
2019-04-22T01:09:02.337Z,38.63
2019-04-22T01:13:57.760Z,39.46
2019-04-22T01:16:28.063Z,39.51
2019-04-22T01:19:00.540Z,39.40
2019-04-22T01:21:36.587Z,38.93
2019-04-22T01:24:05.986Z,39.33
2019-04-22T01:26:31.289Z,40.01
2019-04-22T01:29:02.442Z,40.59
2019-04-22T01:31:23.955Z,40.30
2019-04-22T01:34:08.287Z,40.55
2019-04-22T01:36:45.599Z,39.52
2019-04-22T01:39:18.084Z,39.89
2019-04-22T01:41:55.141Z,39.73
2019-04-22T01:44:29.087Z,40.15
2019-04-22T01:46:58.751Z,40.59
2019-04-22T01:49:27.624Z,41.37
2019-04-22T01:52:04.776Z,40.99
2019-04-22T01:54:38.386Z,41.39
2019-04-22T01:57:19.117Z,41.70
2019-04-22T01:59:27.200Z,41.34
2019-04-22T02:02:10.296Z,40.49
2019-04-22T02:07:12.523Z,42.28
2019-04-22T02:09:47.430Z,42.40
2019-04-22T02:12:17.357Z,42.10
2019-04-22T02:14:44.252Z,41.65
2019-04-22T02:17:17.729Z,41.67
2019-04-22T02:19:53.485Z,41.84
2019-04-22T02:22:37.815Z,41.47
2019-04-22T02:24:50.962Z,41.32
2019-04-22T02:27:26.154Z,42.14
2019-04-22T02:29:51.944Z,41.92
2019-04-22T02:32:39.250Z,41.89
2019-04-22T02:37:27.788Z,42.38
2019-04-22T02:40:10.207Z,42.09
2019-04-22T02:42:58.409Z,42.22
2019-04-22T02:45:26.673Z,42.01
2019-04-22T02:47:34.243Z,42.80
2019-04-22T02:52:56.429Z,42.33
2019-04-22T02:55:15.751Z,43.59
2019-04-22T02:57:55.106Z,43.29
2019-04-22T03:00:35.434Z,44.10
2019-04-22T03:05:27.704Z,44.32
2019-04-22T03:07:58.270Z,43.92
2019-04-22T03:10:43.905Z,43.82
2019-04-22T03:13:00.901Z,43.76
2019-04-22T03:15:29.975Z,43.65
2019-04-22T03:21:54.397Z,44.13
2019-04-22T03:27:02.779Z,43.98
2019-04-22T03:30:36.792Z,44.47
2019-04-22T03:37:53.335Z,44.71
2019-04-22T03:40:16.230Z,43.71
2019-04-22T03:42:52.384Z,44.21
2019-04-22T03:50:20.625Z,43.84
2019-04-22T03:52:53.064Z,44.20
2019-04-22T03:55:21.551Z,44.45
2019-04-22T04:03:51.300Z,44.81
2019-04-22T04:05:48.785Z,44.63
2019-04-22T04:10:37.625Z,44.60
2019-04-22T04:13:08.383Z,44.16
2019-04-22T04:15:32.966Z,45.28
2019-04-22T04:18:04.989Z,45.12
2019-04-22T04:20:44.727Z,44.44
2019-04-22T04:28:29.405Z,45.75
2019-04-22T04:30:42.549Z,46.19
2019-04-22T04:33:23.286Z,46.20
2019-04-22T04:38:21.760Z,45.84
2019-04-22T04:40:49.193Z,46.27
2019-04-22T04:43:25.235Z,46.38
2019-04-22T04:45:55.449Z,45.96
2019-04-22T04:48:34.893Z,46.04
2019-04-22T04:53:31.850Z,45.54
2019-04-22T04:56:11.793Z,46.25
2019-04-22T04:58:53.900Z,45.98
2019-04-22T05:01:11.008Z,46.35
2019-04-22T05:03:48.819Z,46.36
2019-04-22T05:06:12.714Z,45.58
2019-04-22T05:09:03.857Z,46.08
2019-04-22T05:11:14.001Z,46.09
2019-04-22T05:18:53.058Z,45.24
2019-04-22T05:21:18.011Z,45.11
2019-04-22T05:23:52.402Z,45.40
2019-04-22T05:28:52.106Z,44.76
2019-04-22T05:31:22.407Z,44.62
2019-04-22T05:33:56.693Z,44.11
2019-04-22T05:36:30.012Z,43.24
2019-04-22T05:39:01.333Z,41.82
2019-04-22T05:41:32.315Z,41.59
2019-04-22T05:44:03.285Z,42.22
2019-04-22T05:46:34.642Z,42.05
2019-04-22T05:49:08.218Z,42.11
2019-04-22T05:51:37.045Z,42.69
2019-04-22T05:59:12.853Z,41.35
2019-04-22T06:01:52.100Z,41.05
2019-04-22T06:04:19.779Z,40.24
2019-04-22T06:06:46.986Z,39.84
2019-04-22T06:09:25.573Z,39.68
2019-04-22T06:11:44.858Z,39.01
2019-04-22T06:14:26.390Z,39.05
2019-04-22T06:17:05.057Z,39.29
2019-04-22T06:19:33.262Z,39.34
2019-04-22T06:22:04.266Z,38.20
2019-04-22T06:24:32.432Z,37.26
2019-04-22T06:29:39.920Z,36.88
2019-04-22T06:34:42.255Z,35.96
2019-04-22T06:37:17.608Z,35.72
2019-04-22T06:39:55.435Z,35.40
2019-04-22T06:46:27.527Z,34.92
2019-04-22T06:49:01.339Z,34.69
2019-04-22T06:54:03.341Z,34.40
2019-04-22T06:56:33.034Z,33.99
2019-04-22T06:59:07.234Z,34.00
2019-04-22T07:01:42.511Z,34.37
2019-04-22T07:04:09.234Z,34.07
2019-04-22T07:06:48.152Z,34.06
2019-04-22T07:11:51.548Z,33.59
2019-04-22T07:14:16.304Z,32.97
2019-04-22T07:17:00.866Z,32.76
2019-04-22T07:19:30.468Z,32.95
2019-04-22T07:21:57.945Z,33.04
2019-04-22T07:24:43.839Z,32.71
2019-04-22T07:27:04.710Z,32.15
2019-04-22T07:29:32.544Z,32.64
2019-04-22T07:32:25.274Z,31.87
2019-04-22T07:37:23.366Z,31.50
2019-04-22T07:39:41.727Z,31.31
2019-04-22T07:42:15.361Z,30.85
2019-04-22T07:44:45.100Z,30.55
2019-04-22T07:49:51.739Z,30.59
2019-04-22T07:52:23.166Z,30.99
2019-04-22T07:54:52.489Z,31.56
2019-04-22T07:57:31.101Z,31.02
2019-04-22T08:00:02.891Z,31.29
2019-04-22T08:02:32.696Z,31.13
2019-04-22T08:12:40.983Z,31.03
2019-04-22T08:15:06.116Z,31.25
2019-04-22T08:20:15.597Z,30.80
2019-04-22T08:22:45.106Z,31.00
2019-04-22T08:25:10.151Z,30.83
2019-04-22T08:27:53.361Z,30.45
2019-04-22T08:30:20.713Z,30.99
2019-04-22T08:32:54.524Z,30.43
2019-04-22T08:35:29.837Z,30.54
2019-04-22T08:43:05.835Z,30.47
2019-04-22T08:45:38.521Z,30.23
2019-04-22T08:48:08.664Z,30.40
2019-04-22T08:50:39.482Z,30.80
2019-04-22T08:53:16.088Z,30.53
2019-04-22T08:55:51.527Z,30.16
2019-04-22T08:58:27.371Z,30.08
2019-04-22T09:00:54.210Z,30.25
2019-04-22T09:03:17.337Z,30.60
2019-04-22T09:08:32.467Z,30.14
2019-04-22T09:10:57.081Z,30.58
2019-04-22T09:13:31.870Z,29.60
2019-04-22T09:15:55.387Z,29.55
2019-04-22T09:21:21.108Z,29.22
2019-04-22T09:26:09.466Z,29.62
2019-04-22T09:28:44.067Z,29.59
2019-04-22T09:31:11.333Z,29.82
2019-04-22T09:33:43.211Z,29.25
2019-04-22T09:36:22.388Z,29.37
2019-04-22T09:38:46.894Z,29.52
2019-04-22T09:41:25.005Z,28.95
2019-04-22T09:46:28.323Z,29.25
2019-04-22T09:49:08.028Z,29.61
2019-04-22T09:51:32.467Z,28.27
2019-04-22T09:54:05.804Z,28.40
2019-04-22T09:56:38.751Z,28.51
2019-04-22T09:59:07.608Z,28.25
2019-04-22T10:01:38.566Z,28.52
2019-04-22T10:04:06.722Z,28.33
2019-04-22T10:06:36.984Z,27.70
2019-04-22T10:11:43.647Z,27.72
2019-04-22T10:15:50.521Z,26.83
2019-04-22T10:18:20.411Z,27.84
2019-04-22T10:20:54.088Z,25.88
2019-04-22T10:23:24.989Z,25.90
2019-04-22T10:26:02.534Z,25.17
2019-04-22T10:28:32.744Z,25.12
2019-04-22T10:30:53.558Z,25.16
2019-04-22T10:33:26.951Z,25.10
2019-04-22T10:35:39.357Z,24.12
2019-04-22T10:38:10.221Z,23.38
2019-04-22T10:40:42.798Z,22.55
2019-04-22T10:43:13.319Z,22.73
2019-04-22T10:45:46.103Z,22.31
2019-04-22T10:48:16.581Z,21.19
2019-04-22T10:50:50.630Z,21.62
2019-04-22T10:53:21.787Z,22.20
2019-04-22T10:55:52.341Z,21.85
2019-04-22T10:58:24.819Z,21.91
2019-04-22T11:00:56.188Z,22.10
2019-04-22T11:03:28.414Z,21.89
2019-04-22T11:05:59.324Z,21.32
2019-04-22T11:08:40.194Z,21.22
2019-04-22T11:11:16.233Z,21.44
2019-04-22T11:13:35.848Z,21.06
2019-04-22T11:16:07.747Z,20.92
2019-04-22T11:18:38.086Z,21.65
2019-04-22T11:21:09.650Z,21.92
2019-04-22T11:23:40.697Z,22.09
2019-04-22T11:26:12.116Z,22.51
2019-04-22T11:28:43.397Z,22.16
2019-04-22T11:31:14.676Z,22.03
2019-04-22T11:33:45.345Z,21.51
2019-04-22T11:36:15.862Z,21.92
2019-04-22T11:38:55.284Z,21.42
2019-04-22T11:41:17.110Z,21.47
2019-04-22T11:43:47.485Z,21.33
2019-04-22T11:46:18.082Z,21.47
2019-04-22T11:48:49.896Z,21.20
2019-04-22T11:51:20.004Z,21.21
2019-04-22T11:53:50.400Z,21.36
2019-04-22T11:56:20.951Z,21.69
2019-04-22T11:58:51.231Z,21.79
2019-04-22T12:01:21.627Z,21.86
2019-04-22T12:03:53.864Z,20.87
2019-04-22T12:06:26.221Z,20.62
2019-04-22T12:08:55.611Z,20.69
2019-04-22T12:11:26.355Z,20.28
2019-04-22T12:13:57.844Z,20.72
2019-04-22T12:16:29.509Z,21.00
2019-04-22T12:19:02.954Z,20.85
2019-04-22T12:21:37.072Z,20.79
2019-04-22T12:24:09.090Z,20.84
2019-04-22T12:26:42.196Z,20.80
2019-04-22T12:29:13.475Z,20.92
2019-04-22T12:31:45.160Z,20.70
2019-04-22T12:34:15.787Z,20.44
2019-04-22T12:36:46.859Z,20.71
2019-04-22T12:39:18.774Z,20.28
2019-04-22T12:41:50.070Z,20.25
2019-04-22T12:44:22.182Z,20.63
2019-04-22T12:46:52.649Z,20.56
2019-04-22T12:49:22.841Z,20.26
2019-04-22T12:51:54.810Z,20.19
2019-04-22T12:54:26.810Z,20.78
2019-04-22T12:56:57.732Z,19.86
2019-04-22T12:59:29.776Z,19.74
2019-04-22T13:02:00.688Z,19.80
2019-04-22T13:04:32.277Z,19.85
2019-04-22T13:07:03.805Z,19.33
2019-04-22T13:09:34.183Z,19.37
2019-04-22T13:12:04.458Z,19.39
2019-04-22T13:14:35.008Z,19.00
2019-04-22T13:17:06.208Z,19.12
2019-04-22T13:19:38.086Z,18.67
2019-04-22T13:22:07.365Z,18.01
2019-04-22T13:24:37.676Z,18.09
2019-04-22T13:27:10.958Z,18.14
2019-04-22T13:29:41.345Z,18.02
2019-04-22T13:32:13.188Z,17.82
2019-04-22T13:34:48.158Z,18.02
2019-04-22T13:37:14.888Z,17.94
2019-04-22T13:39:46.955Z,18.25
2019-04-22T13:42:20.386Z,18.24
2019-04-22T13:44:49.690Z,17.97
2019-04-22T13:47:34.649Z,18.06
2019-04-22T13:50:23.711Z,18.12
2019-04-22T13:52:56.363Z,18.00
2019-04-22T13:55:23.975Z,17.73
2019-04-22T13:57:49.099Z,18.47
2019-04-22T14:00:01.364Z,17.80
2019-04-22T14:02:32.633Z,18.09
2019-04-22T14:05:06.535Z,18.00
2019-04-22T14:07:37.063Z,17.94
2019-04-22T14:10:09.183Z,18.22
2019-04-22T14:12:39.464Z,18.08
2019-04-22T14:15:11.724Z,18.20
2019-04-22T14:17:43.333Z,17.49
2019-04-22T14:20:15.161Z,17.47
2019-04-22T14:22:46.291Z,17.51
2019-04-22T14:25:18.878Z,17.40
2019-04-22T14:27:56.552Z,17.25
2019-04-22T14:30:24.289Z,16.83
2019-04-22T14:32:55.946Z,17.17
2019-04-22T14:35:27.134Z,17.25
2019-04-22T14:37:58.241Z,17.19
2019-04-22T14:40:32.423Z,16.76
2019-04-22T14:43:24.761Z,16.85
2019-04-22T14:48:36.297Z,16.99
2019-04-22T14:51:06.302Z,17.07
2019-04-22T14:53:30.852Z,16.87
2019-04-22T14:55:44.420Z,16.72
2019-04-22T14:58:15.154Z,16.39
2019-04-22T15:00:45.982Z,16.57
2019-04-22T15:03:17.649Z,16.34
2019-04-22T15:05:48.247Z,16.55
2019-04-22T15:08:19.209Z,16.53
2019-04-22T15:10:51.726Z,16.65
2019-04-22T15:13:23.245Z,16.96
2019-04-22T15:15:59.500Z,16.58
2019-04-22T15:18:37.717Z,16.86
2019-04-22T15:21:10.918Z,16.78
2019-04-22T15:23:42.472Z,16.95
2019-04-22T15:26:12.577Z,16.30
2019-04-22T15:28:42.978Z,16.10
2019-04-22T15:31:15.289Z,16.38
2019-04-22T15:33:49.872Z,16.11
2019-04-22T15:36:18.207Z,16.13
2019-04-22T15:38:49.178Z,15.91
2019-04-22T15:41:20.719Z,15.86
2019-04-22T15:43:52.065Z,15.85
2019-04-22T15:46:24.025Z,15.99
2019-04-22T15:48:55.862Z,15.66
2019-04-22T15:51:26.835Z,15.62
2019-04-22T15:53:58.350Z,15.62
2019-04-22T15:56:30.535Z,15.63
2019-04-22T15:59:01.912Z,15.62
2019-04-22T16:01:37.240Z,15.85
2019-04-22T16:04:06.213Z,15.33
2019-04-22T16:06:36.901Z,15.69
2019-04-22T16:09:11.223Z,15.54
2019-04-22T16:11:42.982Z,15.18
2019-04-22T16:14:23.935Z,15.33
2019-04-22T16:16:48.375Z,15.24
2019-04-22T16:19:21.149Z,14.98
2019-04-22T16:21:56.636Z,15.19
2019-04-22T16:24:24.194Z,15.28
2019-04-22T16:27:00.505Z,15.44
2019-04-22T16:29:31.571Z,15.44
2019-04-22T16:32:05.343Z,15.58
2019-04-22T16:34:36.114Z,15.81
2019-04-22T16:37:07.150Z,15.66
2019-04-22T16:39:42.068Z,15.99
2019-04-22T16:42:25.866Z,15.99
2019-04-22T16:44:47.432Z,16.05
2019-04-22T16:47:19.719Z,16.29
2019-04-22T16:49:50.160Z,16.85
2019-04-22T16:52:22.003Z,16.90
2019-04-22T16:54:56.823Z,17.43
2019-04-22T16:57:28.130Z,17.93
2019-04-22T16:59:58.629Z,18.14
2019-04-22T17:02:30.822Z,18.34
2019-04-22T17:05:02.717Z,18.71
2019-04-22T17:07:34.005Z,19.43
2019-04-22T17:10:05.971Z,19.31
2019-04-22T17:12:44.547Z,19.65
2019-04-22T17:15:10.662Z,19.56
2019-04-22T17:17:40.944Z,19.84
2019-04-22T17:20:13.270Z,19.89
2019-04-22T17:22:43.746Z,20.13
2019-04-22T17:25:14.326Z,20.41
2019-04-22T17:27:45.597Z,20.63
2019-04-22T17:30:22.141Z,20.77
2019-04-22T17:32:54.599Z,21.07
2019-04-22T17:35:26.222Z,21.04
2019-04-22T17:38:08.811Z,20.98
2019-04-22T17:40:45.693Z,21.25
2019-04-22T17:43:29.894Z,21.17
2019-04-22T17:45:55.854Z,21.41
2019-04-22T17:48:36.827Z,21.58
2019-04-22T17:51:16.576Z,21.78
2019-04-22T17:53:51.583Z,21.77
2019-04-22T17:56:13.749Z,21.89
2019-04-22T17:58:47.603Z,21.93
2019-04-22T18:01:21.971Z,21.61
2019-04-22T18:03:37.483Z,21.78
2019-04-22T18:06:08.869Z,21.84
2019-04-22T18:08:51.868Z,22.11
2019-04-22T18:11:33.582Z,22.20
2019-04-22T18:14:13.109Z,22.05
2019-04-22T18:16:32.313Z,22.38
2019-04-22T18:19:00.749Z,22.49
2019-04-22T18:21:28.894Z,22.88
2019-04-22T18:23:55.428Z,23.06
2019-04-22T18:26:32.292Z,24.01
2019-04-22T18:29:10.026Z,24.22
2019-04-22T18:31:38.544Z,23.44
2019-04-22T18:34:10.005Z,24.42
2019-04-22T18:36:40.431Z,23.81
2019-04-22T18:39:22.550Z,24.05
2019-04-22T18:41:50.095Z,24.36
2019-04-22T18:44:27.101Z,24.95
2019-04-22T18:46:53.822Z,25.60
2019-04-22T18:49:28.007Z,25.93
2019-04-22T18:52:04.097Z,26.54
2019-04-22T18:54:43.868Z,27.66
2019-04-22T18:57:15.689Z,27.70
2019-04-22T18:59:34.608Z,27.46
2019-04-22T19:02:07.829Z,28.11
2019-04-22T19:04:44.699Z,27.85
2019-04-22T19:07:30.999Z,27.61
2019-04-22T19:10:06.321Z,27.98
2019-04-22T19:12:33.847Z,29.23
2019-04-22T19:15:04.983Z,28.90
2019-04-22T19:17:39.218Z,28.67
2019-04-22T19:20:08.236Z,29.10
2019-04-22T19:22:36.720Z,29.64
2019-04-22T19:25:01.262Z,29.34
2019-04-22T19:27:36.000Z,30.39
2019-04-22T19:30:13.811Z,30.64
2019-04-22T19:32:45.170Z,30.61
2019-04-22T19:35:11.583Z,31.09
2019-04-22T19:37:41.316Z,31.53
2019-04-22T19:40:30.335Z,31.73
2019-04-22T19:42:57.776Z,30.88
2019-04-22T19:45:16.053Z,31.08
2019-04-22T19:47:58.286Z,30.84
2019-04-22T19:50:30.851Z,29.87
2019-04-22T19:52:59.906Z,29.75
2019-04-22T19:55:33.364Z,31.25
2019-04-22T19:58:00.040Z,31.23
2019-04-22T20:00:32.248Z,31.97
2019-04-22T20:03:24.950Z,32.08
2019-04-22T20:05:56.230Z,31.70
2019-04-22T20:08:26.852Z,31.77
2019-04-22T20:11:04.071Z,31.32
2019-04-22T20:13:37.223Z,31.25
2019-04-22T20:15:50.847Z,31.20
2019-04-22T20:18:39.388Z,32.37
2019-04-22T20:21:04.209Z,32.93
2019-04-22T20:23:29.108Z,33.20
2019-04-22T20:26:06.398Z,33.81
2019-04-22T20:28:41.873Z,34.18
2019-04-22T20:31:14.674Z,34.21
2019-04-22T20:33:50.059Z,33.91
2019-04-22T20:36:26.911Z,34.35
2019-04-22T20:38:46.709Z,34.27
2019-04-22T20:41:13.723Z,34.52
2019-04-22T20:43:54.546Z,34.92
2019-04-22T20:46:20.562Z,35.42
2019-04-22T20:48:56.926Z,34.85
2019-04-22T20:51:31.050Z,34.89
2019-04-22T20:54:02.735Z,34.44
2019-04-22T20:56:26.820Z,34.53
2019-04-22T20:59:01.701Z,34.39
2019-04-22T21:01:34.294Z,34.33
2019-04-22T21:03:50.660Z,34.13
2019-04-22T21:06:37.064Z,34.04
2019-04-22T21:09:12.054Z,33.56
2019-04-22T21:11:40.888Z,33.51
2019-04-22T21:14:05.971Z,34.48
2019-04-22T21:16:44.488Z,34.34
2019-04-22T21:19:21.647Z,34.86
2019-04-22T21:21:50.213Z,34.70
2019-04-22T21:24:18.630Z,34.91
2019-04-22T21:26:48.235Z,34.67
2019-04-22T21:29:17.323Z,35.13
2019-04-22T21:31:54.575Z,34.35
2019-04-22T21:34:23.208Z,34.52
2019-04-22T21:37:03.920Z,34.67
2019-04-22T21:39:29.256Z,35.19
2019-04-22T21:42:01.192Z,35.63
2019-04-22T21:44:32.369Z,36.16
2019-04-22T21:47:12.954Z,35.83
2019-04-22T21:49:39.001Z,36.03
2019-04-22T21:52:08.024Z,35.67
2019-04-22T21:54:48.970Z,35.63
2019-04-22T21:57:25.010Z,35.72
2019-04-22T21:59:46.225Z,36.77
2019-04-22T22:02:25.647Z,36.40
2019-04-22T22:04:47.326Z,36.40
2019-04-22T22:07:12.949Z,35.39
2019-04-22T22:09:54.168Z,35.25
2019-04-22T22:12:33.770Z,35.38
2019-04-22T22:15:03.749Z,36.46
2019-04-22T22:17:31.303Z,37.43
2019-04-22T22:19:57.766Z,36.95
2019-04-22T22:22:49.680Z,36.48
2019-04-22T22:25:11.116Z,36.47
2019-04-22T22:27:40.526Z,38.02
2019-04-22T22:32:51.442Z,36.46
2019-04-22T22:35:16.198Z,36.81
2019-04-22T22:37:48.724Z,37.05
2019-04-22T22:40:07.427Z,36.68
2019-04-22T22:42:38.954Z,37.32
2019-04-22T22:45:17.845Z,37.15
2019-04-22T22:48:07.359Z,37.53
2019-04-22T22:50:30.281Z,37.83
2019-04-22T22:53:15.456Z,37.14
2019-04-22T22:55:37.311Z,37.64
2019-04-22T22:58:14.307Z,37.91
2019-04-22T23:00:35.334Z,37.40
2019-04-22T23:05:50.502Z,37.65
2019-04-22T23:08:20.164Z,37.35
2019-04-22T23:10:56.003Z,36.95
2019-04-22T23:13:21.496Z,36.30
2019-04-22T23:15:46.718Z,37.11
2019-04-22T23:18:01.744Z,36.98
2019-04-22T23:20:37.834Z,36.88
2019-04-22T23:23:20.357Z,37.13
2019-04-22T23:26:01.698Z,36.99
2019-04-22T23:28:40.051Z,37.11
2019-04-22T23:31:14.050Z,36.70
2019-04-22T23:33:54.639Z,36.30
2019-04-22T23:36:21.900Z,36.29
2019-04-22T23:42:18.250Z,36.77
2019-04-22T23:46:55.352Z,37.63
2019-04-22T23:49:25.235Z,37.13
2019-04-22T23:52:10.111Z,37.82
2019-04-22T23:54:38.965Z,37.70
2019-04-22T23:57:03.385Z,38.29
